Time;durP1;ratioP1;P1;durP2;ratioP2;P2;SDS_P1;SDS_P2;PMS_P1;PMS_P2;Temp;Humidity;BMP_temperature;BMP_pressure;BME280_temperature;BME280_humidity;BME280_pressure;Samples;Min_cycle;Max_cycle;Signal;HPM_P1;HPM_P2
2022/12/12 00:00:29;;;;;;;18.40;11.63;;;1.60;68.30;;;;;;5116898;28;20163;-79
2022/12/12 00:02:56;;;;;;;18.53;11.77;;;1.60;67.90;;;;;;5116601;28;20198;-79
2022/12/12 00:05:22;;;;;;;16.43;11.07;;;1.60;69.70;;;;;;5116688;28;20293;-77
2022/12/12 00:07:48;;;;;;;17.63;11.90;;;1.80;68.20;;;;;;5116722;28;20220;-81
2022/12/12 00:10:14;;;;;;;20.60;12.27;;;1.80;66.50;;;;;;5116940;28;20179;-79
2022/12/12 00:12:40;;;;;;;17.13;11.43;;;1.70;65.80;;;;;;5115841;28;20716;-77
2022/12/12 00:15:06;;;;;;;18.03;11.50;;;1.70;65.50;;;;;;5116621;28;20167;-79
2022/12/12 00:17:32;;;;;;;17.53;11.63;;;1.60;66.00;;;;;;5116608;28;20184;-79
2022/12/12 00:19:58;;;;;;;17.57;11.57;;;1.60;67.20;;;;;;5121091;28;20266;-77
2022/12/12 00:22:23;;;;;;;18.60;11.43;;;1.60;68.10;;;;;;5102209;28;20182;-79
2022/12/12 00:24:49;;;;;;;16.10;11.03;;;1.60;68.50;;;;;;5122418;28;20159;-77
2022/12/12 00:27:15;;;;;;;20.77;12.93;;;1.60;68.00;;;;;;5102828;28;20687;-77
2022/12/12 00:29:40;;;;;;;18.60;12.07;;;1.60;69.00;;;;;;5116711;28;20178;-79
2022/12/12 00:32:06;;;;;;;19.83;11.87;;;1.60;69.40;;;;;;5116233;28;20170;-79
2022/12/12 00:34:32;;;;;;;18.43;12.63;;;1.70;69.90;;;;;;5116493;28;20202;-79
2022/12/12 00:36:57;;;;;;;19.17;12.20;;;1.70;68.50;;;;;;5116426;28;20167;-83
2022/12/12 00:39:23;;;;;;;17.77;12.53;;;1.60;68.00;;;;;;5116467;28;20651;-79
2022/12/12 00:41:53;;;;;;;19.93;12.83;;;1.70;69.00;;;;;;5097884;28;20649;-77
2022/12/12 00:44:19;;;;;;;17.30;11.87;;;1.70;67.10;;;;;;5116709;28;20194;-77
2022/12/12 00:46:45;;;;;;;20.33;13.13;;;1.70;66.30;;;;;;5115702;28;20237;-79
2022/12/12 00:49:11;;;;;;;21.40;13.23;;;1.60;67.30;;;;;;5115784;28;20171;-77
2022/12/12 00:51:37;;;;;;;20.67;12.57;;;1.50;69.50;;;;;;5116309;28;20167;-78
2022/12/12 00:54:03;;;;;;;18.30;11.60;;;1.50;70.40;;;;;;5115719;28;20231;-79
2022/12/12 00:56:29;;;;;;;18.80;11.93;;;1.40;70.80;;;;;;5115455;28;20167;-77
2022/12/12 00:58:55;;;;;;;20.07;11.87;;;1.40;71.60;;;;;;5115452;28;20219;-78
2022/12/12 01:01:24;;;;;;;18.50;11.93;;;1.50;72.30;;;;;;5115700;28;20175;-78
2022/12/12 01:03:51;;;;;;;19.43;11.87;;;1.60;70.80;;;;;;5097253;28;20175;-80
2022/12/12 01:06:17;;;;;;;21.47;12.97;;;1.50;69.20;;;;;;5115293;28;20210;-80
2022/12/12 01:08:42;;;;;;;17.73;12.23;;;1.40;69.60;;;;;;5115369;28;20175;-81
2022/12/12 01:11:10;;;;;;;20.67;12.50;;;1.40;70.10;;;;;;5114877;28;20182;-80
2022/12/12 01:13:36;;;;;;;18.03;11.63;;;1.20;70.90;;;;;;5115197;28;20212;-80
2022/12/12 01:16:03;;;;;;;17.47;12.03;;;1.10;73.60;;;;;;5096775;28;20594;-79
2022/12/12 01:18:29;;;;;;;18.77;11.90;;;1.10;75.10;;;;;;5114906;28;20240;-79
2022/12/12 01:20:55;;;;;;;20.70;12.20;;;1.10;76.20;;;;;;5115334;28;20171;-79
2022/12/12 01:23:21;;;;;;;17.87;12.47;;;1.10;77.70;;;;;;5114672;28;20627;-79
2022/12/12 01:25:47;;;;;;;18.60;12.00;;;1.20;77.50;;;;;;5114407;28;20202;-79
2022/12/12 01:28:13;;;;;;;20.27;12.73;;;1.30;77.20;;;;;;5115181;28;20210;-78
2022/12/12 01:30:39;;;;;;;21.10;12.27;;;1.40;76.70;;;;;;5114992;28;21030;-78
2022/12/12 01:33:04;;;;;;;17.47;11.77;;;1.30;75.00;;;;;;5115101;28;20241;-79
2022/12/12 01:35:31;;;;;;;19.00;12.30;;;1.30;74.60;;;;;;5115128;28;20262;-79
2022/12/12 01:37:57;;;;;;;19.30;12.77;;;1.40;74.10;;;;;;5114985;28;20273;-81
2022/12/12 01:40:26;;;;;;;20.07;12.90;;;1.20;73.50;;;;;;5114414;28;20209;-83
2022/12/12 01:42:53;;;;;;;18.13;11.57;;;1.10;74.40;;;;;;5114661;28;20193;-82
2022/12/12 01:46:10;;;;;;;16.67;11.37;;;1.20;75.90;;;;;;5096247;28;20230;-77
2022/12/12 01:48:48;;;;;;;18.70;11.33;;;0.90;76.20;;;;;;5068522;28;20191;-78
2022/12/12 01:51:16;;;;;;;17.77;11.20;;;0.80;78.80;;;;;;5114184;28;20741;-78
2022/12/12 01:53:44;;;;;;;18.60;11.50;;;0.80;81.30;;;;;;5113717;28;20254;-77
2022/12/12 01:56:13;;;;;;;17.70;12.37;;;0.80;82.50;;;;;;5114116;28;20623;-77
2022/12/12 01:58:40;;;;;;;20.33;11.37;;;0.80;83.50;;;;;;5114148;28;20506;-78
2022/12/12 02:01:07;;;;;;;22.67;12.80;;;0.90;83.90;;;;;;5113561;28;20175;-77
2022/12/12 02:03:34;;;;;;;17.90;11.80;;;0.90;83.70;;;;;;5114481;28;20163;-77
2022/12/12 02:06:04;;;;;;;18.40;11.90;;;0.90;84.30;;;;;;5114864;28;20776;-77
2022/12/12 02:08:30;;;;;;;21.30;11.33;;;0.90;82.80;;;;;;5116589;28;20167;-76
2022/12/12 02:10:56;;;;;;;19.10;12.20;;;0.90;82.10;;;;;;5116981;28;20270;-78
2022/12/12 02:13:26;;;;;;;18.47;11.77;;;0.90;82.20;;;;;;5115786;28;20290;-77
2022/12/12 02:16:04;;;;;;;20.77;12.30;;;0.80;82.80;;;;;;5114181;28;20191;-79
2022/12/12 02:19:07;;;;;;;17.40;11.67;;;0.70;82.70;;;;;;5112927;28;20584;-79
2022/12/12 02:21:47;;;;;;;19.20;12.23;;;0.60;84.30;;;;;;5113455;28;20166;-76
2022/12/12 02:24:35;;;;;;;18.00;11.53;;;0.70;85.10;;;;;;5114251;28;20182;-77
2022/12/12 02:27:45;;;;;;;19.60;12.17;;;0.70;86.00;;;;;;5121077;28;20186;-76
2022/12/12 02:30:28;;;;;;;17.03;11.17;;;0.90;85.60;;;;;;5123364;28;20236;-76
2022/12/12 02:33:24;;;;;;;19.20;11.60;;;0.80;82.60;;;;;;5113586;28;20193;-78
2022/12/12 02:36:13;;;;;;;18.57;11.67;;;0.70;83.20;;;;;;5094122;28;20183;-81
2022/12/12 02:39:00;;;;;;;19.23;11.57;;;0.70;83.00;;;;;;5113733;28;20557;-79
2022/12/12 02:41:37;;;;;;;17.43;11.43;;;0.60;83.60;;;;;;5095380;28;20183;-80
2022/12/12 02:44:27;;;;;;;17.10;11.57;;;0.60;85.10;;;;;;5114071;28;20232;-81
2022/12/12 02:47:14;;;;;;;18.07;11.97;;;0.60;86.50;;;;;;5113429;28;20206;-78
2022/12/12 02:49:46;;;;;;;19.70;12.40;;;0.70;86.00;;;;;;5113677;28;20171;-78
2022/12/12 02:52:12;;;;;;;18.67;12.17;;;0.90;84.60;;;;;;5113573;28;20173;-81
2022/12/12 02:54:38;;;;;;;18.00;12.10;;;0.70;84.00;;;;;;5113706;28;20163;-79
2022/12/12 02:57:13;;;;;;;19.83;11.53;;;0.80;83.40;;;;;;5112518;28;20179;-78
2022/12/12 02:59:47;;;;;;;21.33;12.93;;;0.70;83.10;;;;;;5113834;28;20596;-78
2022/12/12 03:02:31;;;;;;;19.57;12.00;;;0.90;82.90;;;;;;5113491;28;20171;-78
2022/12/12 03:08:24;;;;;;;18.70;12.07;;;0.70;83.00;;;;;;5093056;28;20205;-77
2022/12/12 03:10:54;;;;;;;20.60;12.00;;;0.50;83.10;;;;;;5093105;28;20172;-77
2022/12/12 03:13:29;;;;;;;21.07;11.43;;;0.50;83.90;;;;;;5092861;28;20175;-76
2022/12/12 03:16:12;;;;;;;22.03;13.20;;;0.30;85.30;;;;;;5092972;28;20572;-77
2022/12/12 03:18:45;;;;;;;21.47;12.17;;;0.30;86.50;;;;;;5093472;28;20211;-77
2022/12/12 03:21:35;;;;;;;22.27;13.63;;;0.20;88.40;;;;;;5096053;28;20654;-76
2022/12/12 03:24:07;;;;;;;19.33;11.93;;;0.20;89.00;;;;;;5120071;28;20159;-76
2022/12/12 03:26:55;;;;;;;20.83;12.77;;;0.10;89.90;;;;;;5118892;28;20206;-77
2022/12/12 03:30:01;;;;;;;22.30;13.17;;;0.00;90.40;;;;;;5123708;28;20167;-77
2022/12/12 03:32:52;;;;;;;19.30;11.93;;;-0.10;90.90;;;;;;5124640;28;20215;-76
2022/12/12 03:35:26;;;;;;;18.47;11.90;;;0.10;91.70;;;;;;5124401;28;20572;-76
2022/12/12 03:38:05;;;;;;;23.23;13.17;;;0.00;90.80;;;;;;5118193;28;20196;-79
2022/12/12 03:40:39;;;;;;;19.73;12.73;;;-0.10;91.40;;;;;;5116828;28;20174;-77
2022/12/12 03:43:33;;;;;;;21.60;13.07;;;0.00;91.70;;;;;;5116775;28;20189;-76
2022/12/12 03:46:19;;;;;;;24.57;13.60;;;0.00;91.20;;;;;;5103414;28;20302;-76
2022/12/12 03:49:20;;;;;;;23.07;14.73;;;-0.10;91.20;;;;;;5117059;28;20159;-77
2022/12/12 03:52:01;;;;;;;23.17;14.27;;;-0.10;91.40;;;;;;5111743;28;20232;-78
2022/12/12 03:54:36;;;;;;;24.03;14.53;;;-0.30;91.70;;;;;;5116773;28;20171;-76
2022/12/12 03:57:12;;;;;;;21.27;13.10;;;-0.20;92.60;;;;;;5098316;28;20163;-76
2022/12/12 03:59:45;;;;;;;24.03;14.53;;;-0.20;92.20;;;;;;5116632;28;20166;-76
2022/12/12 04:02:11;;;;;;;19.50;13.23;;;-0.20;92.80;;;;;;5116716;28;20163;-77
2022/12/12 04:04:53;;;;;;;22.03;13.10;;;-0.20;92.70;;;;;;5116238;28;20731;-77
2022/12/12 04:07:23;;;;;;;20.50;13.67;;;-0.20;92.90;;;;;;5116742;28;20537;-79
2022/12/12 04:12:59;;;;;;;19.27;12.73;;;-0.10;92.50;;;;;;5116513;28;20178;-77
2022/12/12 04:15:52;;;;;;;21.50;12.70;;;-0.10;92.30;;;;;;5116448;28;20684;-78
2022/12/12 04:18:21;;;;;;;21.47;13.63;;;-0.20;91.90;;;;;;5097332;28;20231;-78
2022/12/12 04:23:31;;;;;;;19.77;12.07;;;-0.20;92.20;;;;;;5116851;28;20706;-76
2022/12/12 04:29:35;;;;;;;20.43;13.50;;;0.00;91.90;;;;;;5120539;28;20189;-79
2022/12/12 04:32:16;;;;;;;19.33;12.87;;;0.00;91.40;;;;;;5087396;28;20206;-80
2022/12/12 04:34:46;;;;;;;20.63;13.03;;;0.00;90.90;;;;;;5115312;28;20207;-80
2022/12/12 04:37:16;;;;;;;18.00;12.00;;;0.00;90.60;;;;;;5098290;28;20171;-81
2022/12/12 04:39:46;;;;;;;20.17;13.37;;;-0.10;90.00;;;;;;5116591;28;20183;-82
2022/12/12 04:42:16;;;;;;;19.87;13.17;;;-0.10;90.20;;;;;;5116710;28;20187;-81
2022/12/12 04:44:44;;;;;;;21.80;13.50;;;-0.10;90.60;;;;;;5125781;28;20174;-80
2022/12/12 04:47:11;;;;;;;18.43;12.20;;;0.00;90.70;;;;;;5125599;28;20185;-79
2022/12/12 04:49:40;;;;;;;19.50;12.40;;;0.00;90.40;;;;;;5116821;28;20178;-79
2022/12/12 04:52:09;;;;;;;18.43;12.33;;;0.00;89.60;;;;;;5115775;28;20224;-80
2022/12/12 04:54:48;;;;;;;18.03;12.47;;;-0.10;89.50;;;;;;5115608;28;20171;-81
2022/12/12 04:57:24;;;;;;;18.13;11.90;;;-0.10;89.90;;;;;;5114382;28;20249;-80
2022/12/12 04:59:50;;;;;;;19.87;12.33;;;-0.20;89.20;;;;;;5115273;28;20566;-80
2022/12/12 05:02:38;;;;;;;17.63;12.50;;;-0.20;90.20;;;;;;5121767;28;20174;-78
2022/12/12 05:05:25;;;;;;;20.10;12.80;;;-0.20;90.20;;;;;;5129943;28;20666;-77
2022/12/12 05:08:12;;;;;;;19.43;12.60;;;0.00;90.70;;;;;;5115708;28;20565;-81
2022/12/12 05:10:45;;;;;;;19.30;11.50;;;0.00;89.10;;;;;;5114873;28;20179;-77
2022/12/12 05:13:17;;;;;;;22.87;12.30;;;0.10;88.40;;;;;;5114395;28;20183;-82
2022/12/12 05:15:44;;;;;;;17.97;12.67;;;0.10;86.80;;;;;;5115074;28;20219;-83
2022/12/12 05:18:11;;;;;;;20.37;11.93;;;0.20;86.70;;;;;;5115300;28;20163;-81
2022/12/12 05:20:37;;;;;;;18.13;11.90;;;0.10;84.40;;;;;;5096676;28;20261;-79
2022/12/12 05:23:03;;;;;;;19.17;12.57;;;-0.10;83.70;;;;;;5115460;28;20216;-78
2022/12/12 05:25:29;;;;;;;17.63;12.60;;;-0.20;84.90;;;;;;5114641;28;20210;-79
2022/12/12 05:27:54;;;;;;;20.93;12.27;;;-0.20;86.70;;;;;;5115128;28;20577;-79
2022/12/12 05:30:21;;;;;;;18.47;12.47;;;-0.30;87.70;;;;;;5096370;28;20630;-78
2022/12/12 05:32:46;;;;;;;17.73;11.23;;;-0.30;88.30;;;;;;5114613;28;20186;-77
2022/12/12 05:35:12;;;;;;;20.80;12.83;;;-0.30;88.20;;;;;;5115076;28;20175;-78
2022/12/12 05:37:38;;;;;;;20.53;12.30;;;-0.30;88.70;;;;;;5114639;28;20512;-79
2022/12/12 05:40:06;;;;;;;17.20;11.50;;;-0.30;89.20;;;;;;5114783;28;20167;-82
2022/12/12 05:42:32;;;;;;;18.53;12.30;;;-0.40;89.70;;;;;;5114926;28;20163;-80
2022/12/12 05:44:57;;;;;;;19.30;12.07;;;-0.50;90.40;;;;;;5113409;28;20231;-79
2022/12/12 05:47:23;;;;;;;18.77;12.00;;;-0.40;91.00;;;;;;5114810;28;20635;-80
2022/12/12 05:49:49;;;;;;;19.37;11.17;;;-0.40;90.70;;;;;;5114608;28;20246;-79
2022/12/12 05:52:14;;;;;;;18.23;11.00;;;-0.40;90.50;;;;;;5113771;28;20703;-78
2022/12/12 05:54:40;;;;;;;18.73;12.53;;;-0.40;90.40;;;;;;5114008;28;20177;-80
2022/12/12 05:57:06;;;;;;;21.47;12.63;;;-0.50;90.50;;;;;;5114355;28;20665;-78
2022/12/12 05:59:32;;;;;;;21.37;12.97;;;-0.50;91.10;;;;;;5097428;28;20170;-79
2022/12/12 06:01:57;;;;;;;18.87;11.47;;;-0.50;91.50;;;;;;5116999;28;20202;-79
2022/12/12 06:04:23;;;;;;;19.83;12.50;;;-0.60;91.70;;;;;;5114612;28;20183;-78
2022/12/12 06:06:49;;;;;;;20.33;12.33;;;-0.60;91.90;;;;;;5095652;28;20648;-77
2022/12/12 06:09:15;;;;;;;19.27;11.13;;;-0.60;91.70;;;;;;5096067;28;20167;-77
2022/12/12 06:11:41;;;;;;;19.40;12.33;;;-0.60;91.80;;;;;;5096003;28;20193;-81
2022/12/12 06:14:07;;;;;;;19.63;11.93;;;-0.40;92.10;;;;;;5114503;28;20627;-79
2022/12/12 06:16:34;;;;;;;21.67;13.53;;;-0.40;91.60;;;;;;5115494;28;20229;-78
2022/12/12 06:19:00;;;;;;;17.03;11.77;;;-0.40;91.30;;;;;;5115028;28;20223;-79
2022/12/12 06:21:25;;;;;;;20.93;12.73;;;-0.30;91.40;;;;;;5116190;28;20178;-77
2022/12/12 06:23:52;;;;;;;19.60;12.07;;;-0.30;91.00;;;;;;5097019;28;20183;-77
2022/12/12 06:26:19;;;;;;;19.50;12.43;;;-0.30;90.90;;;;;;5118995;28;20613;-78
2022/12/12 06:28:45;;;;;;;22.90;12.93;;;-0.20;90.70;;;;;;5119595;28;20266;-78
2022/12/12 06:31:12;;;;;;;20.10;11.73;;;-0.10;90.20;;;;;;5118119;28;20171;-78
2022/12/12 06:33:39;;;;;;;19.87;11.73;;;-0.20;88.20;;;;;;5116106;28;20178;-77
2022/12/12 06:36:08;;;;;;;21.27;12.30;;;-0.20;89.50;;;;;;5113544;28;20175;-78
2022/12/12 06:38:34;;;;;;;19.47;12.80;;;-0.20;89.10;;;;;;5113908;28;20206;-79
2022/12/12 06:41:05;;;;;;;20.57;12.40;;;-0.20;88.70;;;;;;5113653;28;20661;-82
2022/12/12 06:43:31;;;;;;;20.00;12.40;;;-0.40;88.10;;;;;;5095214;28;20170;-77
2022/12/12 06:46:05;;;;;;;20.93;11.57;;;-0.40;89.70;;;;;;5095097;28;20217;-79
2022/12/12 06:48:32;;;;;;;20.50;12.40;;;-0.40;90.50;;;;;;5113801;28;20223;-80
2022/12/12 06:51:03;;;;;;;20.57;12.23;;;-0.20;90.70;;;;;;5113855;28;20630;-78
2022/12/12 06:53:29;;;;;;;20.37;11.93;;;-0.10;89.60;;;;;;5113825;28;20173;-80
2022/12/12 06:55:54;;;;;;;20.60;12.57;;;-0.10;88.30;;;;;;5113229;28;20171;-80
2022/12/12 06:58:20;;;;;;;22.33;13.03;;;-0.10;87.90;;;;;;5113222;28;20514;-79
2022/12/12 07:00:52;;;;;;;20.07;11.73;;;-0.20;86.30;;;;;;5095066;28;20175;-81
2022/12/12 07:03:18;;;;;;;21.40;11.63;;;-0.40;86.10;;;;;;5113317;28;20185;-78
2022/12/12 07:05:46;;;;;;;20.73;12.03;;;-0.40;87.10;;;;;;5112805;28;20214;-78
2022/12/12 07:08:14;;;;;;;21.87;12.87;;;-0.50;87.50;;;;;;5113640;28;20198;-78
2022/12/12 07:10:41;;;;;;;22.87;12.70;;;-0.60;88.90;;;;;;5113748;28;20846;-79
2022/12/12 07:13:07;;;;;;;23.53;13.47;;;-0.60;90.40;;;;;;5091247;28;20540;-80
2022/12/12 07:15:33;;;;;;;24.30;13.00;;;-0.60;90.70;;;;;;5101313;28;20172;-82
2022/12/12 07:17:58;;;;;;;20.53;12.07;;;-0.60;90.60;;;;;;5099060;28;20235;-78
2022/12/12 07:20:24;;;;;;;24.77;13.90;;;-0.60;90.70;;;;;;5113467;28;20194;-77
2022/12/12 07:22:50;;;;;;;24.90;13.83;;;-0.70;91.20;;;;;;5094676;28;20514;-79
2022/12/12 07:25:16;;;;;;;22.73;13.47;;;-0.70;91.60;;;;;;5093566;28;20271;-78
2022/12/12 07:27:43;;;;;;;25.23;13.83;;;-0.60;91.70;;;;;;5093084;28;20203;-78
2022/12/12 07:30:09;;;;;;;20.63;13.40;;;-0.60;91.40;;;;;;5092551;28;20163;-80
2022/12/12 07:32:35;;;;;;;24.63;13.87;;;-0.60;91.10;;;;;;5074862;28;20226;-77
2022/12/12 07:35:01;;;;;;;22.27;13.67;;;-0.60;91.00;;;;;;5075155;28;20211;-82
2022/12/12 07:37:26;;;;;;;20.97;12.83;;;-0.70;90.90;;;;;;5082788;28;20737;-78
2022/12/12 07:39:52;;;;;;;24.23;13.93;;;-0.70;91.20;;;;;;5111689;28;20167;-78
2022/12/12 07:42:18;;;;;;;24.07;13.13;;;-0.70;91.30;;;;;;5096291;28;20194;-81
2022/12/12 07:44:46;;;;;;;24.40;13.47;;;-0.70;91.40;;;;;;5094710;28;20225;-80
2022/12/12 07:47:15;;;;;;;24.97;14.03;;;-0.70;91.60;;;;;;5091281;28;20676;-82
2022/12/12 07:49:41;;;;;;;28.60;14.97;;;-0.60;91.30;;;;;;5092999;28;20524;-80
2022/12/12 07:52:06;;;;;;;23.20;13.83;;;-0.60;90.90;;;;;;5075109;28;20183;-79
2022/12/12 07:54:32;;;;;;;23.70;13.80;;;-0.60;90.70;;;;;;5093401;28;20693;-79
2022/12/12 07:56:59;;;;;;;26.07;13.83;;;-0.50;90.30;;;;;;5093545;28;20177;-80
2022/12/12 07:59:24;;;;;;;21.33;13.83;;;-0.60;90.30;;;;;;5093437;28;20163;-79
2022/12/12 08:01:51;;;;;;;23.13;12.67;;;-0.60;89.30;;;;;;5074332;28;20171;-78
2022/12/12 08:04:17;;;;;;;23.00;13.23;;;-0.70;89.00;;;;;;5093090;28;20215;-78
2022/12/12 08:06:42;;;;;;;23.23;13.73;;;-0.70;90.40;;;;;;5075384;28;20360;-80
2022/12/12 08:09:08;;;;;;;23.93;14.00;;;-0.80;90.50;;;;;;5076765;28;20171;-79
2022/12/12 08:11:34;;;;;;;25.80;13.90;;;-0.70;90.60;;;;;;5096658;28;20236;-79
2022/12/12 08:13:59;;;;;;;25.60;12.73;;;-0.70;91.10;;;;;;5078250;28;20639;-80
2022/12/12 08:16:27;;;;;;;26.47;14.07;;;-0.50;91.10;;;;;;5096468;28;20530;-79
2022/12/12 08:18:54;;;;;;;27.53;14.00;;;-0.40;90.40;;;;;;5077923;28;20626;-80
2022/12/12 08:21:20;;;;;;;23.23;13.37;;;-0.40;89.70;;;;;;5096531;28;20203;-79
2022/12/12 08:23:45;;;;;;;29.27;17.27;;;-0.40;88.30;;;;;;5096072;28;20175;-81
2022/12/12 08:26:14;;;;;;;26.77;15.17;;;-0.40;87.50;;;;;;5095849;28;20622;-80
2022/12/12 08:28:42;;;;;;;25.43;14.73;;;-0.40;86.60;;;;;;5096061;28;20203;-78
2022/12/12 08:31:19;;;;;;;26.03;14.77;;;-0.40;86.60;;;;;;5096028;28;20254;-81
2022/12/12 08:33:45;;;;;;;24.87;14.00;;;-0.20;86.40;;;;;;5096107;28;20168;-83
2022/12/12 08:36:13;;;;;;;22.97;13.53;;;-0.20;84.80;;;;;;5095849;28;20183;-79
2022/12/12 08:38:38;;;;;;;21.43;13.13;;;-0.10;84.90;;;;;;5097615;28;20187;-80
2022/12/12 08:41:04;;;;;;;21.27;13.20;;;0.00;83.10;;;;;;5095945;28;20313;-79
2022/12/12 08:43:30;;;;;;;24.53;14.73;;;0.10;82.00;;;;;;5099194;28;20521;-78
2022/12/12 08:46:00;;;;;;;48.43;16.57;;;0.30;81.50;;;;;;5077906;28;20211;-80
2022/12/12 08:48:26;;;;;;;81.40;21.80;;;0.40;77.50;;;;;;5097614;28;20164;-80
2022/12/12 08:50:52;;;;;;;71.30;20.60;;;0.60;75.20;;;;;;5078050;28;20171;-81
2022/12/12 08:53:18;;;;;;;38.50;15.90;;;0.60;69.30;;;;;;5095311;28;20168;-84
2022/12/12 08:55:43;;;;;;;29.43;15.07;;;0.80;67.20;;;;;;5095918;28;20175;-82
2022/12/12 08:58:09;;;;;;;27.10;14.50;;;0.90;64.00;;;;;;5096248;28;20223;-82
2022/12/12 09:00:36;;;;;;;47.30;16.47;;;0.80;60.30;;;;;;5098796;28;20171;-80
2022/12/12 09:03:01;;;;;;;28.43;15.50;;;0.90;60.20;;;;;;5097349;28;20171;-80
2022/12/12 09:05:27;;;;;;;27.43;13.67;;;1.00;59.50;;;;;;5099569;28;20200;-80
2022/12/12 09:07:54;;;;;;;22.63;14.20;;;1.00;58.30;;;;;;5099680;28;20180;-83
2022/12/12 09:10:19;;;;;;;28.03;14.03;;;1.10;57.40;;;;;;5097617;28;20213;-80
2022/12/12 09:12:45;;;;;;;25.30;14.03;;;1.20;56.60;;;;;;5077741;28;20168;-82
2022/12/12 09:15:11;;;;;;;22.40;13.43;;;1.40;55.60;;;;;;5095129;28;20168;-80
2022/12/12 09:17:36;;;;;;;26.93;14.60;;;1.30;51.70;;;;;;5077516;28;20224;-80
2022/12/12 09:20:03;;;;;;;29.63;14.83;;;1.50;52.00;;;;;;5095375;28;20171;-80
2022/12/12 09:22:28;;;;;;;27.93;14.23;;;1.50;51.30;;;;;;5095150;28;20526;-81
2022/12/12 09:24:54;;;;;;;25.40;14.33;;;1.60;50.50;;;;;;5097239;28;20167;-79
2022/12/12 09:27:20;;;;;;;22.43;12.97;;;1.60;48.40;;;;;;5089042;28;20189;-78
2022/12/12 09:29:45;;;;;;;20.63;12.90;;;1.80;47.00;;;;;;5108240;28;20198;-78
2022/12/12 09:32:12;;;;;;;23.80;13.17;;;1.70;44.80;;;;;;5107223;28;20170;-78
2022/12/12 09:34:38;;;;;;;22.30;13.23;;;1.80;43.40;;;;;;5077485;28;20172;-81
2022/12/12 09:37:04;;;;;;;21.70;13.20;;;2.00;39.90;;;;;;5095020;28;20190;-79
2022/12/12 09:39:30;;;;;;;22.43;12.20;;;2.00;38.50;;;;;;5094657;28;20195;-78
2022/12/12 09:41:56;;;;;;;20.87;13.30;;;2.00;38.10;;;;;;5096647;28;20168;-80
2022/12/12 09:44:23;;;;;;;20.87;12.03;;;2.00;38.40;;;;;;5076511;28;20183;-79
2022/12/12 09:46:56;;;;;;;22.33;13.10;;;2.10;35.10;;;;;;5076572;28;20211;-80
2022/12/12 09:49:58;;;;;;;21.43;12.40;;;2.20;34.00;;;;;;5077694;28;20535;-78
2022/12/12 09:52:43;;;;;;;20.67;12.90;;;2.10;34.20;;;;;;5012849;28;20186;-80
2022/12/12 09:55:15;;;;;;;23.00;13.53;;;2.10;34.40;;;;;;5074256;28;20176;-80
2022/12/12 09:58:02;;;;;;;23.83;13.33;;;2.10;35.60;;;;;;5101264;28;20182;-78
2022/12/12 10:00:32;;;;;;;20.57;12.73;;;2.30;35.40;;;;;;5120713;28;20168;-79
2022/12/12 10:03:32;;;;;;;20.57;12.03;;;2.40;30.60;;;;;;5077552;28;20605;-79
2022/12/12 10:06:03;;;;;;;18.33;11.27;;;2.40;30.10;;;;;;5076037;28;20350;-81
2022/12/12 10:08:44;;;;;;;20.77;11.37;;;2.50;29.10;;;;;;5076340;28;20632;-80
2022/12/12 10:14:02;;;;;;;22.10;11.80;;;2.30;28.10;;;;;;5094953;28;20174;-80
2022/12/12 10:16:31;;;;;;;18.07;11.40;;;2.40;29.40;;;;;;5106931;28;20193;-76
2022/12/12 10:19:16;;;;;;;20.13;11.60;;;2.50;28.30;;;;;;5113768;28;20183;-80
2022/12/12 10:21:41;;;;;;;21.40;11.10;;;2.70;26.90;;;;;;5094876;28;20168;-81
2022/12/12 10:24:17;;;;;;;18.57;11.00;;;2.80;24.10;;;;;;5094275;28;20247;-81
2022/12/12 10:26:43;;;;;;;18.50;12.13;;;2.80;22.60;;;;;;5094038;28;20214;-81
2022/12/12 10:29:24;;;;;;;18.77;12.17;;;2.70;22.70;;;;;;5094049;28;20164;-79
2022/12/12 10:32:10;;;;;;;21.97;11.23;;;3.00;21.50;;;;;;5093754;28;20199;-77
2022/12/12 10:34:58;;;;;;;19.50;11.37;;;2.90;19.60;;;;;;5075498;28;20300;-81
2022/12/12 10:37:45;;;;;;;15.20;9.83;;;2.90;20.60;;;;;;5093779;28;20175;-80
2022/12/12 10:40:38;;;;;;;17.70;10.77;;;3.00;19.60;;;;;;5093752;28;20207;-80
2022/12/12 10:43:18;;;;;;;15.70;10.20;;;3.00;17.70;;;;;;5093754;28;20168;-78
2022/12/12 10:46:08;;;;;;;15.33;9.83;;;3.00;16.60;;;;;;5093270;28;20199;-79
2022/12/12 10:48:34;;;;;;;17.10;9.63;;;3.00;14.90;;;;;;5075360;28;20179;-79
2022/12/12 10:51:06;;;;;;;16.93;10.70;;;2.90;14.00;;;;;;5093309;28;20178;-80
2022/12/12 10:53:32;;;;;;;15.60;10.47;;;2.90;15.00;;;;;;5093467;28;20171;-79
2022/12/12 10:56:07;;;;;;;16.23;10.73;;;2.90;16.70;;;;;;5093016;28;20171;-80
2022/12/12 10:58:42;;;;;;;19.47;11.07;;;3.10;16.10;;;;;;5093323;28;20174;-80
2022/12/12 11:01:33;;;;;;;17.23;10.47;;;3.50;12.70;;;;;;5093149;28;20159;-81
2022/12/12 11:04:00;;;;;;;17.03;10.33;;;3.30;11.30;;;;;;5092124;28;20192;-80
2022/12/12 11:06:30;;;;;;;16.83;10.40;;;3.30;11.60;;;;;;5075123;28;20679;-80
2022/12/12 11:09:15;;;;;;;15.53;9.90;;;3.20;10.90;;;;;;5093107;28;20250;-80
2022/12/12 11:11:59;;;;;;;14.67;9.97;;;3.20;12.00;;;;;;5074820;28;20655;-81
2022/12/12 11:14:34;;;;;;;16.30;10.47;;;3.30;12.60;;;;;;5093749;28;20176;-80
2022/12/12 11:17:00;;;;;;;16.60;10.27;;;3.30;11.60;;;;;;5075139;28;20225;-81
2022/12/12 11:19:34;;;;;;;14.70;9.23;;;3.40;8.90;;;;;;5093806;28;20631;-78
2022/12/12 11:22:03;;;;;;;18.10;10.47;;;3.60;6.80;;;;;;5101969;28;20187;-79
2022/12/12 11:24:33;;;;;;;16.47;10.07;;;3.80;5.10;;;;;;5099239;28;20167;-80
2022/12/12 11:27:06;;;;;;;15.10;9.77;;;3.90;3.20;;;;;;5102243;28;20207;-79
2022/12/12 11:29:40;;;;;;;16.97;9.60;;;3.90;1.00;;;;;;5094420;28;20163;-80
2022/12/12 11:32:21;;;;;;;17.53;10.10;;;3.60;1.00;;;;;;5097874;28;20174;-82
2022/12/12 11:34:52;;;;;;;15.50;9.00;;;3.50;1.00;;;;;;5100059;28;20250;-79
2022/12/12 11:37:24;;;;;;;16.00;9.70;;;3.50;1.00;;;;;;5094308;28;20276;-82
2022/12/12 11:39:52;;;;;;;14.67;9.23;;;3.50;1.00;;;;;;5095408;28;20163;-82
2022/12/12 11:42:29;;;;;;;15.43;9.20;;;3.50;1.00;;;;;;5094054;28;20168;-82
2022/12/12 11:45:21;;;;;;;15.77;9.20;;;3.50;1.00;;;;;;5079140;28;20174;-83
2022/12/12 11:47:47;;;;;;;15.60;9.40;;;3.70;1.00;;;;;;5097241;28;20701;-82
2022/12/12 11:50:27;;;;;;;13.43;8.90;;;3.80;1.00;;;;;;5099263;28;20175;-82
2022/12/12 11:53:00;;;;;;;14.83;10.03;;;3.90;1.00;;;;;;5106584;28;20172;-83
2022/12/12 11:55:58;;;;;;;15.73;9.90;;;4.10;1.00;;;;;;5098410;28;20160;-83
2022/12/12 11:58:31;;;;;;;16.37;9.67;;;4.20;1.00;;;;;;5096996;28;20168;-82
2022/12/12 12:01:07;;;;;;;11.87;7.67;;;4.30;1.00;;;;;;5097302;28;20612;-82
2022/12/12 12:03:54;;;;;;;12.67;8.77;;;4.20;1.00;;;;;;5104773;28;20174;-82
2022/12/12 12:06:41;;;;;;;14.70;8.63;;;4.20;1.00;;;;;;5117043;28;20210;-80
2022/12/12 12:09:35;;;;;;;12.47;8.10;;;4.00;1.00;;;;;;5114641;28;20163;-83
2022/12/12 12:12:06;;;;;;;14.60;8.37;;;4.00;1.00;;;;;;5112920;28;20472;-80
2022/12/12 12:14:52;;;;;;;11.47;7.37;;;4.00;1.00;;;;;;5116840;28;20643;-82
2022/12/12 12:18:03;;;;;;;13.23;8.30;;;4.00;1.00;;;;;;5117384;28;20163;-83
2022/12/12 12:20:37;;;;;;;19.63;8.33;;;4.10;1.00;;;;;;5034445;28;20610;-79
2022/12/12 12:23:15;;;;;;;11.93;7.80;;;4.20;1.00;;;;;;5033690;28;20273;-79
2022/12/12 12:25:56;;;;;;;13.77;9.23;;;4.30;1.00;;;;;;5057872;28;20226;-78
2022/12/12 12:28:35;;;;;;;13.73;9.07;;;4.30;1.00;;;;;;5086552;28;20179;-80
2022/12/12 12:31:26;;;;;;;13.70;8.00;;;4.30;1.00;;;;;;5118427;27;20209;-80
2022/12/12 12:34:13;;;;;;;16.10;8.00;;;4.50;1.00;;;;;;5124872;27;20177;-79
2022/12/12 12:37:05;;;;;;;11.33;7.90;;;4.50;1.00;;;;;;5100355;28;20273;-82
2022/12/12 12:39:41;;;;;;;12.40;8.27;;;4.50;1.00;;;;;;5130642;27;20255;-78
2022/12/12 12:42:15;;;;;;;11.17;7.53;;;4.60;1.00;;;;;;5125229;28;20266;-79
2022/12/12 12:45:10;;;;;;;12.37;7.80;;;4.50;1.00;;;;;;5115153;28;20171;-79
2022/12/12 12:47:51;;;;;;;13.20;7.47;;;4.60;1.00;;;;;;5117365;27;20171;-79
2022/12/12 12:50:47;;;;;;;10.70;7.57;;;4.60;1.00;;;;;;5112493;28;20182;-79
2022/12/12 12:53:24;;;;;;;14.97;7.90;;;4.60;1.00;;;;;;5111464;28;20639;-79
2022/12/12 12:55:54;;;;;;;11.73;8.13;;;4.80;1.00;;;;;;5100557;28;20202;-81
2022/12/12 12:58:25;;;;;;;11.50;7.77;;;5.00;1.00;;;;;;5100654;27;20167;-78
2022/12/12 13:01:21;;;;;;;13.97;9.07;;;4.90;1.00;;;;;;5124489;27;20170;-79
2022/12/12 13:04:03;;;;;;;12.13;7.90;;;5.00;1.00;;;;;;5115164;28;20217;-78
2022/12/12 13:07:06;;;;;;;15.90;8.30;;;4.90;1.00;;;;;;5114778;28;20222;-81
2022/12/12 13:09:59;;;;;;;11.70;7.90;;;4.90;1.00;;;;;;5115708;28;20653;-82
2022/12/12 13:12:37;;;;;;;14.87;8.70;;;5.00;1.00;;;;;;5110363;28;20155;-82
2022/12/12 13:15:11;;;;;;;13.47;8.03;;;4.90;1.00;;;;;;5113669;28;20178;-81
2022/12/12 13:18:00;;;;;;;12.30;7.77;;;5.00;1.00;;;;;;5110078;28;20682;-80